Time;durP1;ratioP1;P1;durP2;ratioP2;P2;SDS_P1;SDS_P2;PMS_P1;PMS_P2;Temp;Humidity;BMP_temperature;BMP_pressure;BME280_temperature;BME280_humidity;BME280_pressure;Samples;Min_cycle;Max_cycle;Signal;HPM_P1;HPM_P2
2021/08/28 00:00:15;;;;;;;5.90;3.10;;;;;;;;;;4993289;28;20072;-57
2021/08/28 00:02:40;;;;;;;6.07;3.17;;;;;;;;;;4992097;28;20161;-58
2021/08/28 00:05:07;;;;;;;4.88;2.63;;;;;;;;;;4993808;28;20608;-57
2021/08/28 00:07:32;;;;;;;5.03;2.50;;;;;;;;;;4973356;28;20406;-57
2021/08/28 00:09:58;;;;;;;4.47;2.17;;;;;;;;;;4990284;28;20034;-58
2021/08/28 00:12:24;;;;;;;8.35;2.60;;;;;;;;;;4990517;28;21675;-57
2021/08/28 00:14:50;;;;;;;4.40;2.35;;;;;;;;;;4985128;28;20054;-57
2021/08/28 00:17:15;;;;;;;5.65;2.78;;;;;;;;;;4985987;28;20203;-56
2021/08/28 00:19:44;;;;;;;5.55;2.80;;;;;;;;;;4989615;28;20046;-57
2021/08/28 00:22:10;;;;;;;12.18;5.78;;;;;;;;;;4991800;28;20065;-57
2021/08/28 00:24:36;;;;;;;6.00;2.83;;;;;;;;;;4990927;28;20046;-57
2021/08/28 00:27:03;;;;;;;4.82;2.47;;;;;;;;;;4973577;28;20078;-56
2021/08/28 00:29:29;;;;;;;7.10;2.90;;;;;;;;;;4990324;28;20157;-58
2021/08/28 00:31:55;;;;;;;4.93;2.50;;;;;;;;;;4991030;28;20042;-58
2021/08/28 00:37:26;;;;;;;6.13;2.78;;;;;;;;;;4990412;28;20056;-58
2021/08/28 00:39:52;;;;;;;6.60;2.78;;;;;;;;;;4992306;28;20537;-57
2021/08/28 00:42:18;;;;;;;7.10;2.70;;;;;;;;;;4991948;28;20050;-58
2021/08/28 00:44:44;;;;;;;7.05;2.80;;;;;;;;;;4992281;28;20040;-57
2021/08/28 00:47:19;;;;;;;6.20;3.13;;;;;;;;;;4991382;28;20173;-58
2021/08/28 00:49:51;;;;;;;7.78;3.20;;;;;;;;;;4989854;28;20042;-58
2021/08/28 00:52:17;;;;;;;7.97;3.05;;;;;;;;;;4990976;28;20049;-56
2021/08/28 00:54:43;;;;;;;6.97;3.42;;;;;;;;;;4989938;28;20053;-57
2021/08/28 00:57:12;;;;;;;7.35;3.15;;;;;;;;;;4992109;28;20050;-56
2021/08/28 00:59:41;;;;;;;7.90;3.30;;;;;;;;;;4990259;28;20050;-55
2021/08/28 01:02:07;;;;;;;5.30;2.58;;;;;;;;;;4991159;28;20042;-57
2021/08/28 01:04:50;;;;;;;6.88;2.75;;;;;;;;;;4991291;28;20056;-57
2021/08/28 01:07:31;;;;;;;7.68;2.95;;;;;;;;;;4991828;28;20164;-57
2021/08/28 01:09:59;;;;;;;7.03;2.95;;;;;;;;;;4991806;28;20041;-57
2021/08/28 01:12:26;;;;;;;6.97;3.15;;;;;;;;;;4990238;28;20038;-57
2021/08/28 01:14:57;;;;;;;6.18;2.70;;;;;;;;;;4991320;28;20068;-57
2021/08/28 01:17:25;;;;;;;4.93;2.35;;;;;;;;;;4992566;28;20034;-56
2021/08/28 01:20:03;;;;;;;6.85;2.95;;;;;;;;;;4996587;28;20227;-56
2021/08/28 01:22:29;;;;;;;5.03;2.63;;;;;;;;;;4994291;28;20042;-57
2021/08/28 01:24:56;;;;;;;5.90;2.72;;;;;;;;;;4995272;28;20537;-56
2021/08/28 01:27:43;;;;;;;7.43;3.00;;;;;;;;;;4993981;28;20052;-55
2021/08/28 01:30:10;;;;;;;5.90;2.50;;;;;;;;;;4995798;28;20132;-55
2021/08/28 01:32:36;;;;;;;5.78;2.80;;;;;;;;;;4993131;28;20396;-55
2021/08/28 01:35:02;;;;;;;4.90;2.22;;;;;;;;;;4994258;28;20065;-54
2021/08/28 01:37:28;;;;;;;6.35;2.70;;;;;;;;;;4993457;28;20602;-51
2021/08/28 01:46:27;;;;;;;7.72;2.28;;;;;;;;;;4992615;28;20806;-54
2021/08/28 01:48:52;;;;;;;4.60;1.92;;;;;;;;;;4994144;28;20129;-55
2021/08/28 01:51:18;;;;;;;4.20;1.80;;;;;;;;;;4992807;28;20044;-54
2021/08/28 01:53:44;;;;;;;4.25;1.65;;;;;;;;;;4993430;28;20045;-55
2021/08/28 01:56:12;;;;;;;6.95;1.73;;;;;;;;;;4993765;28;20523;-55
2021/08/28 01:58:38;;;;;;;4.85;1.65;;;;;;;;;;4975829;28;20777;-53
2021/08/28 02:01:04;;;;;;;5.47;1.50;;;;;;;;;;4993373;28;20045;-53
2021/08/28 02:03:30;;;;;;;4.72;1.73;;;;;;;;;;4993447;28;20390;-55
2021/08/28 02:06:00;;;;;;;3.40;1.58;;;;;;;;;;4994087;28;20033;-54
2021/08/28 02:08:29;;;;;;;5.15;1.77;;;;;;;;;;4991984;28;20034;-53
2021/08/28 02:10:58;;;;;;;5.80;2.00;;;;;;;;;;4994154;28;20045;-53
2021/08/28 02:13:31;;;;;;;8.95;2.08;;;;;;;;;;4992470;28;20030;-54
2021/08/28 02:16:02;;;;;;;4.45;1.80;;;;;;;;;;4993506;28;20170;-54
2021/08/28 02:18:34;;;;;;;7.22;2.15;;;;;;;;;;4993346;28;20033;-53
2021/08/28 02:21:01;;;;;;;7.03;1.77;;;;;;;;;;4975482;28;20052;-54
2021/08/28 02:23:30;;;;;;;4.75;1.35;;;;;;;;;;4992517;28;20030;-54
2021/08/28 02:25:55;;;;;;;4.45;1.85;;;;;;;;;;4993346;28;20646;-55
2021/08/28 02:28:27;;;;;;;4.63;1.90;;;;;;;;;;4991859;28;20046;-54
2021/08/28 02:30:54;;;;;;;4.28;1.75;;;;;;;;;;4992497;28;20042;-53
2021/08/28 02:33:20;;;;;;;5.75;1.70;;;;;;;;;;4992159;28;20065;-55
2021/08/28 02:35:46;;;;;;;3.92;1.40;;;;;;;;;;4991179;28;20042;-55
2021/08/28 02:38:13;;;;;;;3.00;1.27;;;;;;;;;;4991356;28;20105;-52
2021/08/28 02:40:39;;;;;;;3.67;1.23;;;;;;;;;;4990505;28;20052;-56
2021/08/28 02:43:05;;;;;;;3.92;1.70;;;;;;;;;;4991971;28;20128;-56
2021/08/28 02:45:32;;;;;;;6.03;1.30;;;;;;;;;;4990983;28;20042;-56
2021/08/28 02:51:06;;;;;;;4.50;1.25;;;;;;;;;;4991284;28;20100;-54
2021/08/28 02:53:33;;;;;;;5.05;1.55;;;;;;;;;;4987695;28;20373;-54
2021/08/28 02:55:59;;;;;;;4.72;1.60;;;;;;;;;;4989787;28;20057;-54
2021/08/28 02:58:25;;;;;;;4.85;1.58;;;;;;;;;;4991510;28;20053;-54
2021/08/28 03:00:52;;;;;;;3.42;1.33;;;;;;;;;;4990294;28;20745;-55
2021/08/28 03:03:18;;;;;;;4.88;1.50;;;;;;;;;;4970310;28;20038;-55
2021/08/28 03:05:46;;;;;;;4.05;1.52;;;;;;;;;;4992268;28;20034;-53
2021/08/28 03:08:14;;;;;;;3.78;1.50;;;;;;;;;;4990018;28;20492;-55
2021/08/28 03:10:40;;;;;;;4.70;1.95;;;;;;;;;;4990759;28;20045;-54
2021/08/28 03:13:05;;;;;;;5.63;1.75;;;;;;;;;;4991955;28;20038;-53
2021/08/28 03:15:32;;;;;;;4.80;1.73;;;;;;;;;;4990887;28;20511;-54
2021/08/28 03:17:58;;;;;;;3.90;1.58;;;;;;;;;;4991096;28;20038;-55
2021/08/28 03:20:25;;;;;;;5.45;2.05;;;;;;;;;;4990644;28;20597;-53
2021/08/28 03:22:50;;;;;;;6.00;2.17;;;;;;;;;;4990515;28;20121;-55
2021/08/28 03:25:17;;;;;;;3.78;1.65;;;;;;;;;;4991964;28;20050;-55
2021/08/28 03:27:43;;;;;;;5.60;2.05;;;;;;;;;;4992354;28;20049;-55
2021/08/28 03:30:10;;;;;;;4.65;1.85;;;;;;;;;;4990767;28;20042;-54
2021/08/28 03:32:37;;;;;;;4.50;1.70;;;;;;;;;;4969268;28;20046;-54
2021/08/28 03:35:03;;;;;;;6.05;1.90;;;;;;;;;;4992264;28;20523;-53
2021/08/28 03:37:29;;;;;;;4.95;1.65;;;;;;;;;;4992108;28;20053;-54
2021/08/28 03:39:55;;;;;;;4.97;1.85;;;;;;;;;;4990999;28;20053;-55
2021/08/28 03:42:21;;;;;;;4.15;1.77;;;;;;;;;;4991365;28;20373;-52
2021/08/28 03:44:47;;;;;;;4.35;1.92;;;;;;;;;;4991822;28;20360;-51
2021/08/28 03:47:16;;;;;;;4.95;1.90;;;;;;;;;;4969119;28;20052;-54
2021/08/28 03:49:42;;;;;;;6.50;2.03;;;;;;;;;;4990541;28;20054;-54
2021/08/28 03:55:38;;;;;;;4.95;1.70;;;;;;;;;;4990903;28;20056;-53
2021/08/28 03:58:04;;;;;;;4.93;2.22;;;;;;;;;;4989512;28;20071;-54
2021/08/28 04:00:30;;;;;;;5.03;2.38;;;;;;;;;;4989433;28;20053;-53
2021/08/28 04:02:56;;;;;;;7.60;2.25;;;;;;;;;;4991132;28;20041;-54
2021/08/28 04:05:22;;;;;;;6.57;1.90;;;;;;;;;;4990661;28;20412;-53
2021/08/28 04:07:48;;;;;;;4.13;1.55;;;;;;;;;;4991316;28;20037;-52
2021/08/28 04:10:13;;;;;;;4.30;1.42;;;;;;;;;;4990575;28;20587;-55
2021/08/28 04:12:39;;;;;;;5.00;1.60;;;;;;;;;;4990289;28;22001;-52
2021/08/28 04:15:06;;;;;;;7.10;1.45;;;;;;;;;;4991462;28;20077;-54
2021/08/28 04:17:31;;;;;;;3.53;1.48;;;;;;;;;;4990142;28;20096;-54
2021/08/28 04:19:57;;;;;;;3.92;1.50;;;;;;;;;;4991140;28;20659;-54
2021/08/28 04:22:23;;;;;;;3.60;1.40;;;;;;;;;;4989460;28;20292;-54
2021/08/28 04:24:49;;;;;;;6.80;1.58;;;;;;;;;;4991219;28;20046;-54
2021/08/28 04:27:14;;;;;;;4.43;1.45;;;;;;;;;;4991010;28;20067;-53
2021/08/28 04:29:40;;;;;;;3.75;1.38;;;;;;;;;;4990168;28;20048;-54
2021/08/28 04:32:06;;;;;;;3.65;1.55;;;;;;;;;;4990227;28;20034;-54
2021/08/28 04:34:32;;;;;;;7.20;1.80;;;;;;;;;;4986983;28;20076;-54
2021/08/28 04:36:58;;;;;;;4.65;1.40;;;;;;;;;;4991394;28;20117;-54
2021/08/28 04:39:23;;;;;;;3.92;1.48;;;;;;;;;;4991248;28;20053;-54
2021/08/28 04:41:49;;;;;;;5.70;1.40;;;;;;;;;;4989812;28;20044;-54
2021/08/28 04:44:15;;;;;;;4.38;1.50;;;;;;;;;;4991548;28;20049;-55
2021/08/28 04:46:41;;;;;;;3.72;1.30;;;;;;;;;;4990883;28;20041;-54
2021/08/28 04:49:07;;;;;;;4.07;1.60;;;;;;;;;;4991286;28;20092;-54
2021/08/28 04:51:33;;;;;;;4.32;1.30;;;;;;;;;;4991789;28;20137;-55
2021/08/28 04:53:58;;;;;;;4.95;1.40;;;;;;;;;;4995213;28;20072;-55
2021/08/28 04:56:24;;;;;;;3.72;1.20;;;;;;;;;;4995110;28;20144;-54
2021/08/28 04:58:50;;;;;;;3.30;1.10;;;;;;;;;;4995738;28;20034;-55
2021/08/28 05:01:16;;;;;;;4.25;1.13;;;;;;;;;;4973708;28;20452;-54
2021/08/28 05:03:42;;;;;;;3.20;1.10;;;;;;;;;;4994981;28;20048;-54
2021/08/28 05:06:09;;;;;;;2.67;0.93;;;;;;;;;;4995230;28;20391;-55
2021/08/28 05:08:34;;;;;;;4.25;1.30;;;;;;;;;;4995289;28;20041;-55
2021/08/28 05:11:01;;;;;;;3.63;1.30;;;;;;;;;;4994071;28;20045;-55
2021/08/28 05:13:27;;;;;;;3.13;1.30;;;;;;;;;;4994493;28;20073;-55
2021/08/28 05:15:53;;;;;;;3.20;1.20;;;;;;;;;;4994633;28;20050;-53
2021/08/28 05:18:19;;;;;;;4.88;1.60;;;;;;;;;;4994357;28;20998;-55
2021/08/28 05:20:45;;;;;;;3.53;1.38;;;;;;;;;;4994664;28;20045;-54
2021/08/28 05:23:10;;;;;;;3.20;1.35;;;;;;;;;;4996161;28;20695;-54
2021/08/28 05:25:36;;;;;;;6.07;1.30;;;;;;;;;;4994104;28;20041;-54
2021/08/28 05:28:02;;;;;;;4.53;1.48;;;;;;;;;;4993712;28;20072;-53
2021/08/28 05:30:28;;;;;;;3.30;1.30;;;;;;;;;;4993758;28;20045;-55
2021/08/28 05:32:54;;;;;;;4.25;1.45;;;;;;;;;;4978774;28;20559;-54
2021/08/28 05:35:20;;;;;;;3.85;1.35;;;;;;;;;;4995820;28;20180;-53
2021/08/28 05:41:08;;;;;;;3.65;1.60;;;;;;;;;;4993619;28;20184;-54
2021/08/28 05:43:34;;;;;;;4.07;1.70;;;;;;;;;;4994177;28;20511;-55
2021/08/28 05:46:00;;;;;;;6.50;1.58;;;;;;;;;;4995976;28;20037;-55
2021/08/28 05:48:26;;;;;;;4.43;1.35;;;;;;;;;;4993342;28;20091;-54
2021/08/28 05:50:52;;;;;;;4.45;1.63;;;;;;;;;;4995616;28;20515;-54
2021/08/28 05:53:17;;;;;;;4.07;1.65;;;;;;;;;;4994192;28;20203;-53
2021/08/28 05:55:43;;;;;;;4.35;1.60;;;;;;;;;;4996047;28;20127;-54
2021/08/28 05:58:09;;;;;;;4.00;1.63;;;;;;;;;;4994319;28;20841;-54
2021/08/28 06:00:35;;;;;;;5.72;1.63;;;;;;;;;;4991801;28;20108;-54
2021/08/28 06:03:00;;;;;;;4.40;1.88;;;;;;;;;;4993606;28;20049;-54
2021/08/28 06:05:26;;;;;;;6.20;1.85;;;;;;;;;;4994290;28;20038;-53
2021/08/28 06:07:52;;;;;;;4.13;1.65;;;;;;;;;;4994488;28;20046;-54
2021/08/28 06:10:18;;;;;;;4.40;1.63;;;;;;;;;;4991725;28;20081;-53
2021/08/28 06:12:44;;;;;;;5.03;1.95;;;;;;;;;;4991626;28;20045;-54
2021/08/28 06:15:10;;;;;;;4.28;1.73;;;;;;;;;;4994100;28;20152;-53
2021/08/28 06:17:35;;;;;;;5.38;1.98;;;;;;;;;;4992068;28;20088;-54
2021/08/28 06:20:01;;;;;;;5.63;1.80;;;;;;;;;;4967712;28;20136;-54
2021/08/28 06:22:27;;;;;;;3.63;1.52;;;;;;;;;;4996846;28;20042;-53
2021/08/28 06:24:53;;;;;;;5.30;1.98;;;;;;;;;;4996909;28;20050;-52
2021/08/28 06:27:19;;;;;;;4.72;1.77;;;;;;;;;;4994208;28;20034;-53
2021/08/28 06:29:45;;;;;;;5.43;2.22;;;;;;;;;;4994546;28;20037;-54
2021/08/28 06:32:10;;;;;;;5.40;1.98;;;;;;;;;;4994370;28;20038;-54
2021/08/28 06:34:36;;;;;;;7.63;2.40;;;;;;;;;;4994140;28;20507;-54
2021/08/28 06:37:02;;;;;;;4.18;1.92;;;;;;;;;;4994044;28;20038;-54
2021/08/28 06:39:28;;;;;;;5.15;1.92;;;;;;;;;;4994537;28;20132;-54
2021/08/28 06:44:56;;;;;;;5.78;1.80;;;;;;;;;;4994645;28;20143;-54
2021/08/28 06:47:22;;;;;;;3.95;1.73;;;;;;;;;;4992844;28;20042;-54
2021/08/28 06:49:48;;;;;;;5.13;2.00;;;;;;;;;;4992110;28;20137;-54
2021/08/28 06:52:14;;;;;;;4.05;1.98;;;;;;;;;;4992269;28;20097;-53
2021/08/28 06:54:39;;;;;;;5.00;2.30;;;;;;;;;;4992246;28;20552;-54
2021/08/28 06:57:05;;;;;;;5.70;1.88;;;;;;;;;;4993748;28;20045;-54
2021/08/28 06:59:31;;;;;;;6.13;2.05;;;;;;;;;;4993248;28;20033;-53
2021/08/28 07:01:57;;;;;;;4.60;1.90;;;;;;;;;;4991870;28;20444;-53
2021/08/28 07:04:22;;;;;;;4.55;2.25;;;;;;;;;;4992043;28;20150;-54
2021/08/28 07:06:48;;;;;;;6.47;2.00;;;;;;;;;;4994131;28;21605;-54
2021/08/28 07:09:14;;;;;;;3.97;2.10;;;;;;;;;;4992300;28;20100;-53
2021/08/28 07:11:40;;;;;;;5.35;2.20;;;;;;;;;;4990626;28;20662;-54
2021/08/28 07:14:06;;;;;;;4.70;2.20;;;;;;;;;;4990885;28;20600;-52
2021/08/28 07:16:32;;;;;;;5.15;2.28;;;;;;;;;;4991150;28;20042;-53
2021/08/28 07:18:57;;;;;;;4.55;1.83;;;;;;;;;;4988969;28;20118;-53
2021/08/28 07:21:23;;;;;;;3.67;1.52;;;;;;;;;;4991550;28;20065;-51
2021/08/28 07:23:49;;;;;;;4.97;2.30;;;;;;;;;;4991479;28;20145;-54
2021/08/28 07:26:16;;;;;;;4.55;1.90;;;;;;;;;;4991623;28;20030;-54
2021/08/28 07:28:42;;;;;;;4.95;1.90;;;;;;;;;;4991303;28;20060;-54
2021/08/28 07:31:08;;;;;;;4.03;1.75;;;;;;;;;;4991769;28;20270;-53
2021/08/28 07:33:34;;;;;;;4.68;1.98;;;;;;;;;;4990854;28;20079;-53
2021/08/28 07:36:00;;;;;;;4.18;1.85;;;;;;;;;;4991813;28;20061;-53
2021/08/28 07:38:25;;;;;;;5.65;1.88;;;;;;;;;;4992122;28;20684;-53
2021/08/28 07:40:51;;;;;;;3.80;1.70;;;;;;;;;;4992191;28;20429;-54
2021/08/28 07:43:17;;;;;;;3.75;1.73;;;;;;;;;;4992325;28;20411;-54
2021/08/28 07:45:43;;;;;;;5.35;2.00;;;;;;;;;;4992437;28;20056;-53
2021/08/28 07:48:09;;;;;;;4.75;2.20;;;;;;;;;;4991882;28;20042;-53
2021/08/28 07:53:40;;;;;;;8.50;1.70;;;;;;;;;;4992231;28;20072;-54
2021/08/28 07:56:05;;;;;;;4.95;2.00;;;;;;;;;;4999352;28;20493;-54
2021/08/28 07:58:31;;;;;;;5.07;1.85;;;;;;;;;;4997900;28;20049;-54
2021/08/28 08:00:57;;;;;;;4.20;1.90;;;;;;;;;;4999595;28;20456;-54
2021/08/28 08:03:23;;;;;;;4.90;1.90;;;;;;;;;;4998026;28;20034;-55
2021/08/28 08:05:49;;;;;;;3.92;1.90;;;;;;;;;;4999286;28;20057;-54
2021/08/28 08:08:15;;;;;;;4.60;2.13;;;;;;;;;;4999786;28;20029;-53
2021/08/28 08:10:41;;;;;;;4.50;2.17;;;;;;;;;;4999089;28;20563;-54
2021/08/28 08:13:06;;;;;;;3.80;1.75;;;;;;;;;;5000676;28;20029;-53
2021/08/28 08:15:32;;;;;;;4.72;1.90;;;;;;;;;;4998084;28;20061;-54
2021/08/28 08:17:58;;;;;;;5.82;1.90;;;;;;;;;;4999140;28;20125;-55
2021/08/28 08:20:25;;;;;;;7.25;1.85;;;;;;;;;;4998246;28;20048;-54
2021/08/28 08:22:51;;;;;;;5.63;2.00;;;;;;;;;;5000567;28;20124;-52
2021/08/28 08:25:17;;;;;;;6.65;2.17;;;;;;;;;;4998163;28;20583;-55
2021/08/28 08:27:43;;;;;;;4.20;1.90;;;;;;;;;;4999250;28;20046;-53
2021/08/28 08:30:09;;;;;;;5.28;1.60;;;;;;;;;;4998138;28;20205;-54
2021/08/28 08:32:35;;;;;;;5.68;1.90;;;;;;;;;;4997986;28;20411;-55
2021/08/28 08:35:01;;;;;;;4.13;1.80;;;;;;;;;;4998533;28;20073;-55
2021/08/28 08:37:26;;;;;;;4.72;2.03;;;;;;;;;;4998224;28;20041;-55
2021/08/28 08:39:52;;;;;;;4.00;1.75;;;;;;;;;;4998985;28;20041;-55
2021/08/28 08:42:19;;;;;;;5.13;1.70;;;;;;;;;;4983448;28;20042;-55
2021/08/28 08:44:47;;;;;;;6.25;1.58;;;;;;;;;;4998896;28;20049;-54
2021/08/28 08:47:13;;;;;;;6.10;2.03;;;;;;;;;;4998548;28;20045;-55
2021/08/28 08:49:39;;;;;;;5.85;1.50;;;;;;;;;;4997472;28;20045;-54
2021/08/28 08:52:05;;;;;;;5.82;1.48;;;;;;;;;;4997949;28;20416;-54
2021/08/28 08:54:32;;;;;;;4.30;1.50;;;;;;;;;;4997575;28;20060;-54
2021/08/28 08:56:58;;;;;;;5.15;2.00;;;;;;;;;;4998307;28;20036;-54
2021/08/28 08:59:23;;;;;;;9.85;1.95;;;;;;;;;;4996797;28;20526;-55
2021/08/28 09:01:49;;;;;;;6.47;1.83;;;;;;;;;;4999248;28;20058;-55
2021/08/28 09:04:15;;;;;;;3.60;1.48;;;;;;;;;;5000003;28;20792;-54
2021/08/28 09:06:46;;;;;;;3.97;1.40;;;;;;;;;;4996791;28;20030;-53
2021/08/28 09:09:12;;;;;;;4.88;1.50;;;;;;;;;;4982015;28;20532;-54
2021/08/28 09:11:37;;;;;;;5.70;1.77;;;;;;;;;;4997433;28;20417;-53
2021/08/28 09:14:16;;;;;;;5.60;1.85;;;;;;;;;;4997334;28;20041;-54
2021/08/28 09:16:42;;;;;;;5.22;1.60;;;;;;;;;;4996562;28;20496;-54
2021/08/28 09:19:08;;;;;;;5.55;1.60;;;;;;;;;;4997840;28;20053;-55
2021/08/28 09:21:34;;;;;;;3.88;1.83;;;;;;;;;;4997579;28;20042;-53
2021/08/28 09:24:04;;;;;;;4.70;1.90;;;;;;;;;;4998478;28;20092;-54
2021/08/28 09:26:34;;;;;;;3.67;1.40;;;;;;;;;;4998378;28;20743;-55
2021/08/28 09:29:01;;;;;;;4.05;1.70;;;;;;;;;;4999379;28;20050;-54
2021/08/28 09:31:46;;;;;;;3.67;1.60;;;;;;;;;;4997714;28;20044;-54
2021/08/28 09:34:20;;;;;;;8.73;1.50;;;;;;;;;;4998826;28;20038;-55
2021/08/28 09:36:51;;;;;;;5.55;1.98;;;;;;;;;;4998823;28;20038;-55
2021/08/28 09:39:17;;;;;;;3.40;1.40;;;;;;;;;;5001419;28;20042;-52
2021/08/28 09:41:43;;;;;;;5.43;1.60;;;;;;;;;;5001503;28;20550;-55
2021/08/28 09:44:09;;;;;;;4.55;1.90;;;;;;;;;;5002044;28;20044;-55
2021/08/28 09:46:36;;;;;;;3.13;1.38;;;;;;;;;;5001330;28;20077;-54
2021/08/28 09:49:03;;;;;;;4.95;1.58;;;;;;;;;;5002047;28;20042;-54
2021/08/28 09:51:39;;;;;;;4.70;1.70;;;;;;;;;;4999915;28;20026;-52
2021/08/28 09:54:09;;;;;;;4.88;1.67;;;;;;;;;;5001590;28;20042;-55
2021/08/28 09:56:41;;;;;;;5.00;1.60;;;;;;;;;;5000689;28;20061;-55
2021/08/28 09:59:21;;;;;;;8.25;1.45;;;;;;;;;;5003748;28;20041;-54
2021/08/28 10:05:04;;;;;;;3.92;1.58;;;;;;;;;;4998712;28;20068;-55
2021/08/28 10:07:31;;;;;;;3.83;1.50;;;;;;;;;;5001743;28;20575;-55
2021/08/28 10:10:00;;;;;;;4.28;1.45;;;;;;;;;;5001492;28;20038;-53
2021/08/28 10:12:26;;;;;;;4.38;1.65;;;;;;;;;;5000964;28;20037;-51
2021/08/28 10:14:54;;;;;;;4.80;1.92;;;;;;;;;;5001277;28;20590;-52
2021/08/28 10:17:21;;;;;;;3.75;1.63;;;;;;;;;;5000198;28;20137;-53
2021/08/28 10:19:50;;;;;;;3.67;1.33;;;;;;;;;;5000037;28;20041;-52
2021/08/28 10:22:19;;;;;;;3.80;1.60;;;;;;;;;;5002461;28;20037;-54
2021/08/28 10:24:47;;;;;;;3.95;1.70;;;;;;;;;;5001280;28;20053;-52
2021/08/28 10:27:13;;;;;;;5.00;1.70;;;;;;;;;;5001754;28;20038;-51
2021/08/28 10:29:40;;;;;;;4.45;1.80;;;;;;;;;;5000215;28;20436;-54
2021/08/28 10:32:06;;;;;;;4.78;1.50;;;;;;;;;;5001286;28;20040;-52
2021/08/28 10:34:33;;;;;;;3.42;1.38;;;;;;;;;;4999624;28;20041;-53
2021/08/28 10:36:59;;;;;;;4.00;1.48;;;;;;;;;;5001562;28;20034;-54
2021/08/28 10:39:25;;;;;;;3.05;1.35;;;;;;;;;;4999915;28;20089;-54
2021/08/28 10:41:52;;;;;;;5.50;1.80;;;;;;;;;;5001843;28;20042;-51
2021/08/28 10:44:18;;;;;;;4.22;1.58;;;;;;;;;;5001006;28;20049;-53
2021/08/28 10:46:44;;;;;;;4.07;1.70;;;;;;;;;;5002088;28;20042;-54
2021/08/28 10:49:11;;;;;;;5.75;1.70;;;;;;;;;;4989471;28;20106;-54
2021/08/28 10:51:39;;;;;;;6.30;1.70;;;;;;;;;;5001215;28;20405;-53
2021/08/28 10:54:10;;;;;;;3.63;1.65;;;;;;;;;;5000052;28;20042;-53
2021/08/28 10:56:55;;;;;;;4.78;1.83;;;;;;;;;;5001039;28;20501;-54
2021/08/28 10:59:23;;;;;;;7.30;2.10;;;;;;;;;;4998893;28;20061;-54
2021/08/28 11:01:49;;;;;;;3.75;1.70;;;;;;;;;;5001874;28;20148;-54
2021/08/28 11:04:35;;;;;;;4.68;2.17;;;;;;;;;;5001364;28;20060;-54
2021/08/28 11:07:20;;;;;;;4.07;1.52;;;;;;;;;;4999748;28;20045;-55
2021/08/28 11:10:01;;;;;;;4.65;1.55;;;;;;;;;;4999199;28;20045;-55
2021/08/28 11:12:26;;;;;;;4.88;1.92;;;;;;;;;;4999478;28;20049;-55
2021/08/28 11:18:02;;;;;;;4.70;1.77;;;;;;;;;;4999520;28;20041;-54
2021/08/28 11:20:40;;;;;;;4.07;1.45;;;;;;;;;;4999899;28;20036;-53
2021/08/28 11:23:13;;;;;;;4.57;1.65;;;;;;;;;;5000206;28;20074;-53
2021/08/28 11:25:43;;;;;;;4.10;1.85;;;;;;;;;;4999129;28;20125;-55
2021/08/28 11:28:09;;;;;;;4.25;1.98;;;;;;;;;;4999458;28;20217;-55
2021/08/28 11:30:55;;;;;;;4.95;1.83;;;;;;;;;;4997853;28;20072;-54
2021/08/28 11:33:32;;;;;;;5.25;1.90;;;;;;;;;;4998605;28;20504;-55
2021/08/28 11:35:59;;;;;;;4.53;1.90;;;;;;;;;;4999751;28;20065;-55
2021/08/28 11:38:38;;;;;;;5.38;1.77;;;;;;;;;;5000097;28;20034;-56
2021/08/28 11:41:08;;;;;;;5.32;2.08;;;;;;;;;;4999951;28;20034;-56
2021/08/28 11:43:35;;;;;;;5.60;1.70;;;;;;;;;;4979852;28;20092;-55
2021/08/28 11:46:06;;;;;;;6.22;1.90;;;;;;;;;;4999351;28;20050;-55
2021/08/28 11:48:33;;;;;;;4.43;1.98;;;;;;;;;;4998690;28;20049;-55
2021/08/28 11:50:59;;;;;;;5.35;1.73;;;;;;;;;;4999212;28;20084;-55
2021/08/28 11:53:30;;;;;;;8.45;2.40;;;;;;;;;;4999300;28;20069;-54
2021/08/28 11:56:03;;;;;;;5.35;1.80;;;;;;;;;;4997981;28;20046;-52
2021/08/28 11:58:29;;;;;;;4.72;2.10;;;;;;;;;;4999560;28;20110;-54
2021/08/28 12:00:54;;;;;;;5.43;1.95;;;;;;;;;;4998320;28;20220;-53
2021/08/28 12:03:20;;;;;;;8.07;1.98;;;;;;;;;;4998352;28;20471;-52
2021/08/28 12:05:46;;;;;;;12.10;1.85;;;;;;;;;;4998606;28;20058;-54
2021/08/28 12:08:14;;;;;;;4.90;1.73;;;;;;;;;;4998848;28;20044;-54
2021/08/28 12:10:44;;;;;;;4.40;1.77;;;;;;;;;;4998738;28;20037;-55
2021/08/28 12:13:10;;;;;;;5.72;2.00;;;;;;;;;;4980892;28;20483;-55
2021/08/28 12:15:36;;;;;;;5.57;2.00;;;;;;;;;;4998259;28;20100;-55
2021/08/28 12:18:02;;;;;;;4.00;1.73;;;;;;;;;;4998924;28;20038;-54
2021/08/28 12:20:30;;;;;;;4.25;1.88;;;;;;;;;;4997968;28;20330;-55
2021/08/28 12:22:57;;;;;;;4.78;2.10;;;;;;;;;;4998825;28;20041;-54
2021/08/28 12:31:42;;;;;;;4.40;1.58;;;;;;;;;;4998429;28;20408;-54
2021/08/28 12:34:23;;;;;;;4.32;1.80;;;;;;;;;;4998269;28;20061;-55
2021/08/28 12:36:49;;;;;;;5.80;1.83;;;;;;;;;;4997536;28;20034;-54
2021/08/28 12:39:16;;;;;;;10.45;2.30;;;;;;;;;;4999400;28;20443;-55
2021/08/28 12:41:42;;;;;;;4.68;1.88;;;;;;;;;;4998484;28;20209;-53
2021/08/28 12:44:09;;;;;;;4.72;2.05;;;;;;;;;;4998802;28;20034;-55
2021/08/28 12:46:35;;;;;;;5.40;2.00;;;;;;;;;;4996789;28;20038;-55
2021/08/28 12:49:11;;;;;;;5.50;1.92;;;;;;;;;;4998968;28;20061;-55
2021/08/28 12:51:37;;;;;;;10.25;2.30;;;;;;;;;;4997740;28;21149;-55
2021/08/28 12:54:03;;;;;;;4.93;2.00;;;;;;;;;;4998777;28;20054;-54
2021/08/28 12:56:29;;;;;;;4.32;1.65;;;;;;;;;;4997066;28;20041;-52
2021/08/28 12:58:55;;;;;;;4.45;2.00;;;;;;;;;;4999268;28;20060;-56
2021/08/28 13:01:21;;;;;;;5.38;1.92;;;;;;;;;;4999088;28;21016;-53
2021/08/28 13:03:48;;;;;;;4.43;1.90;;;;;;;;;;4979080;28;20517;-57
2021/08/28 13:06:20;;;;;;;5.40;2.05;;;;;;;;;;4998484;28;20148;-53
2021/08/28 13:08:46;;;;;;;4.88;2.15;;;;;;;;;;4979212;28;20121;-54
2021/08/28 13:11:22;;;;;;;9.98;2.00;;;;;;;;;;4999613;28;20130;-54
2021/08/28 13:13:57;;;;;;;7.68;2.00;;;;;;;;;;4998446;28;20060;-58
2021/08/28 13:16:24;;;;;;;5.38;2.35;;;;;;;;;;5001156;28;20049;-54
2021/08/28 13:19:10;;;;;;;5.57;2.10;;;;;;;;;;5001889;28;20156;-56
2021/08/28 13:21:39;;;;;;;6.15;2.00;;;;;;;;;;4987997;28;20124;-56
2021/08/28 13:24:23;;;;;;;11.23;2.50;;;;;;;;;;5002793;28;20760;-56
2021/08/28 13:26:59;;;;;;;7.47;2.10;;;;;;;;;;5001592;28;20125;-56
2021/08/28 13:29:35;;;;;;;6.43;1.92;;;;;;;;;;5001546;28;20065;-55
2021/08/28 13:32:03;;;;;;;5.85;2.60;;;;;;;;;;5002119;28;20033;-56
2021/08/28 13:34:39;;;;;;;6.57;2.47;;;;;;;;;;4999542;28;20037;-56
2021/08/28 13:37:07;;;;;;;9.70;2.25;;;;;;;;;;5002901;28;20045;-56
2021/08/28 13:39:33;;;;;;;6.03;2.10;;;;;;;;;;5002386;28;20045;-57
2021/08/28 13:41:59;;;;;;;7.53;2.20;;;;;;;;;;5002135;28;20750;-54
2021/08/28 13:44:25;;;;;;;5.18;2.08;;;;;;;;;;5002096;28;20037;-55
2021/08/28 13:46:51;;;;;;;4.15;2.03;;;;;;;;;;5001189;28;20061;-54
2021/08/28 13:49:17;;;;;;;5.00;2.30;;;;;;;;;;5001806;28;20034;-56
2021/08/28 13:51:43;;;;;;;5.38;2.65;;;;;;;;;;5002243;28;20093;-53
2021/08/28 13:54:09;;;;;;;8.18;2.30;;;;;;;;;;5004260;28;20044;-52
2021/08/28 13:56:34;;;;;;;5.07;2.47;;;;;;;;;;5000638;28;20256;-55
2021/08/28 13:59:00;;;;;;;12.93;1.92;;;;;;;;;;5003906;28;20108;-54
2021/08/28 14:01:27;;;;;;;4.90;2.28;;;;;;;;;;5002205;28;20053;-54
2021/08/28 14:03:52;;;;;;;7.05;2.40;;;;;;;;;;5002420;28;20089;-55
2021/08/28 14:06:18;;;;;;;6.07;2.30;;;;;;;;;;5000207;28;20560;-56
2021/08/28 14:08:44;;;;;;;7.25;2.42;;;;;;;;;;5002686;28;20042;-53
2021/08/28 14:11:10;;;;;;;8.23;2.38;;;;;;;;;;5000387;28;20472;-56
2021/08/28 14:13:36;;;;;;;10.00;2.67;;;;;;;;;;5000302;28;20095;-54
2021/08/28 14:16:01;;;;;;;10.73;2.97;;;;;;;;;;4999802;28;20527;-54
2021/08/28 14:18:30;;;;;;;8.82;2.10;;;;;;;;;;5001327;28;20444;-55
2021/08/28 14:20:56;;;;;;;8.18;2.30;;;;;;;;;;5000688;28;20034;-53
2021/08/28 14:23:23;;;;;;;8.80;2.83;;;;;;;;;;4999448;28;20038;-55
2021/08/28 14:25:49;;;;;;;9.77;2.55;;;;;;;;;;5000795;28;20042;-55
2021/08/28 14:28:14;;;;;;;12.50;3.58;;;;;;;;;;4980492;28;20056;-52
2021/08/28 14:30:41;;;;;;;3.92;1.80;;;;;;;;;;4999646;28;20037;-51
2021/08/28 14:33:06;;;;;;;4.28;2.10;;;;;;;;;;5001146;28;20030;-55
2021/08/28 14:35:33;;;;;;;5.50;2.25;;;;;;;;;;4999596;28;20101;-55
2021/08/28 14:37:58;;;;;;;4.47;2.10;;;;;;;;;;5000819;28;20033;-55
2021/08/28 14:40:24;;;;;;;5.03;1.83;;;;;;;;;;5000873;28;20046;-52
2021/08/28 14:42:50;;;;;;;5.88;2.05;;;;;;;;;;5001506;28;20799;-54
2021/08/28 14:45:16;;;;;;;6.22;1.88;;;;;;;;;;5000681;28;20042;-54
2021/08/28 14:47:42;;;;;;;7.60;2.30;;;;;;;;;;5000424;28;20779;-53
2021/08/28 14:50:08;;;;;;;5.75;2.10;;;;;;;;;;5001496;28;20044;-56
2021/08/28 14:52:34;;;;;;;3.92;1.83;;;;;;;;;;5000346;28;20539;-54
2021/08/28 14:55:01;;;;;;;3.83;1.58;;;;;;;;;;5001267;28;20319;-55
2021/08/28 14:57:29;;;;;;;4.32;1.63;;;;;;;;;;4999061;28;20204;-54
2021/08/28 14:59:55;;;;;;;5.20;1.83;;;;;;;;;;5000728;28;20037;-51
2021/08/28 15:02:21;;;;;;;5.68;1.70;;;;;;;;;;5001319;28;20521;-52
2021/08/28 15:04:46;;;;;;;4.97;1.52;;;;;;;;;;5002821;28;20061;-52
2021/08/28 15:07:13;;;;;;;4.43;1.52;;;;;;;;;;5000349;28;20046;-55
2021/08/28 15:09:39;;;;;;;4.85;1.80;;;;;;;;;;4982717;28;20488;-53
2021/08/28 15:12:05;;;;;;;3.72;1.42;;;;;;;;;;5001267;28;20045;-56
2021/08/28 15:14:31;;;;;;;4.85;1.70;;;;;;;;;;5000424;28;20108;-56
2021/08/28 15:16:57;;;;;;;8.18;1.77;;;;;;;;;;5000061;28;20354;-55
2021/08/28 15:19:23;;;;;;;3.92;1.55;;;;;;;;;;4999775;28;20519;-53
2021/08/28 15:21:49;;;;;;;3.65;1.45;;;;;;;;;;5001644;28;20042;-56